Latest Coastal Weather Observations for Cape Borda

IDT60701

Issued at 6:55 am EST Monday 21 April 2014 (issued every 10 minutes, with the page automatically refreshed every 10 minutes)

About coastal observations | Map of coastal stations | Coastal observations for TAS | Marine services | Other Formats
Station Details ID: 022823 Name: CAPE BORDA Lat: -35.75 Lon: 136.60 Height: 158.0 m
Data from the previous 72 hours. | See also: Recent months at Cape Borda
Date/Time
EST
Temp

°C
Wind Pressure Rain
since 9am
mm
Weather Cloud Vis
km
Sea
Height
m
Swell
Dir
 
Speed
knots
Gust
knots
hPa Trend Height
m
Period
s
Dir
21/06:30am 18.0 NE 15 21 1010.4 - 0.0 - - - - - - -
21/06:00am 17.8 NE 15 20 1010.8 - 0.0 - - - - - - -
21/05:30am 17.8 NE 16 22 1010.7 - 0.0 - - - - - - -
21/05:00am 17.3 NE 16 21 1010.9 - 0.0 - - - - - - -
21/04:30am 18.1 NE 17 25 1011.0 - 0.0 - - - - - - -
21/04:00am 17.3 ENE 18 25 1011.2 - 0.0 - - - - - - -
21/03:30am 16.7 ENE 17 23 1011.4 - 0.0 - - - - - - -
21/03:00am 16.6 ENE 18 24 1011.8 - 0.0 - - - - - - -
21/02:30am 16.4 ENE 18 24 1012.2 - 0.0 - - - - - - -
21/02:00am 16.3 ENE 18 27 1012.5 - 0.0 - - - - - - -
21/01:56am 16.2 ENE 17 27 1012.6 - 0.0 - - - - - - -
21/01:30am 15.9 ENE 18 24 1013.0 - 0.0 - - - - - - -
21/01:00am 15.9 ENE 17 22 1013.5 - 0.0 - - - - - - -
21/12:30am 16.0 ENE 16 23 1013.8 - 0.0 - - - - - - -
21/12:00am 16.0 ENE 15 20 1014.4 - 0.0 - - - - - - -
 
Date/Time
EST
Temp

°C
Wind Pressure Rain
since 9am
mm
Weather Cloud Vis
km
Sea
Height
m
Swell
Dir
 
Speed
knots
Gust
knots
hPa Trend Height
m
Period
s
Dir
20/11:30pm 15.7 ENE 13 17 1015.0 - 0.0 - - - - - - -
20/11:00pm 15.7 ENE 13 18 1015.4 - 0.0 - - - - - - -
20/10:30pm 15.4 ENE 13 17 1015.2 - 0.0 - - - - - - -
20/10:00pm 15.0 ENE 11 14 1016.0 - 0.0 - - - - - - -
20/09:30pm 15.1 E 11 16 1015.5 - 0.0 - - - - - - -
20/09:00pm 15.0 E 7 9 1016.5 - 0.0 - - - - - - -
20/08:30pm 15.2 E 7 8 1016.8 - 0.0 - - - - - - -
20/08:00pm 15.2 E 6 7 1017.1 - 0.0 - - - - - - -
20/07:30pm 15.5 W 4 5 1017.2 - 0.0 - - - - - - -
20/07:00pm 15.6 CALM 0 0 1017.2 - 0.0 - - - - - - -
20/06:30pm 16.2 W 3 4 1016.9 - 0.0 - - - - - - -
20/06:00pm 16.7 W 2 4 1016.8 - 0.0 - - - - - - -
20/05:30pm 16.9 W 5 6 1016.8 - 0.0 - - - - - - -
20/05:00pm 17.6 W 5 6 1016.7 - 0.0 - - - - - - -
20/04:30pm 17.5 W 6 8 1017.0 - 0.0 - - - - - - -
20/04:00pm 18.8 WSW 6 8 1016.8 - 0.0 - - - - - - -
20/03:30pm 18.1 W 7 9 1016.8 F 0.0 Fine Mostly cloudy 7 1 - - SW
20/03:00pm 17.6 W 9 11 1017.2 - 0.0 - - - - - - -
20/02:30pm 17.8 WNW 8 11 1017.1 - 0.0 - - - - - - -
20/02:00pm 17.9 WNW 8 13 1017.2 - 0.0 - - - - - - -
20/01:30pm 17.2 WNW 9 11 1017.4 - 0.0 - - - - - - -
20/01:00pm 17.5 W 11 15 1017.8 - 0.0 - - - - - - -
20/12:30pm 18.4 WNW 11 14 1018.0 - 0.0 - - - - - - -
20/12:00pm 18.1 WNW 10 13 1018.3 - 0.0 - - - - - - -
20/11:30am 17.6 NW 10 14 1018.4 - 0.0 - - - - - - -
20/11:00am 17.1 NW 10 13 1018.5 - 0.0 - - - - - - -
20/10:30am 17.3 NW 9 13 1018.2 - 0.0 - - - - - - -
20/10:00am 16.8 NW 9 13 1018.4 - 0.0 - - - - - - -
20/09:30am 16.3 NW 9 12 1018.3 R 0.0 Fine Mostly cloudy 15 1 - - SW
20/09:00am 16.7 NW 8 11 1018.4 - 0.0 - - - - - - -
20/08:30am 16.1 WNW 9 13 1018.2 - 0.0 - - - - - - -
20/08:00am 15.4 NW 9 13 1017.7 - 0.0 - - - - - - -
20/07:30am 15.4 NW 10 13 1017.6 - 0.0 - - - - - - -
20/07:00am 15.2 NW 9 11 1017.2 - 0.0 - - - - - - -
20/06:30am 15.2 - 10 13 1017.0 F 0.0 Fine Mostly cloudy 15 1 - - SW
20/06:00am 15.2 NW 10 13 1017.0 - 0.0 - - - - - - -
20/05:30am 15.2 NNW 11 15 1016.6 - 0.0 - - - - - - -
20/05:00am 15.1 NW 11 15 1016.5 - 0.0 - - - - - - -
20/04:30am 15.0 NW 9 12 1016.4 - 0.0 - - - - - - -
20/04:00am 14.6 NW 9 12 1016.6 - 0.0 - - - - - - -
20/03:30am 14.7 NW 8 11 1016.3 - 0.0 - - - - - - -
20/03:00am 15.2 NW 9 12 1016.8 - 0.0 - - - - - - -
20/02:30am 14.6 NNW 9 11 1016.9 - 0.0 - - - - - - -
20/02:00am 14.7 NNW 8 11 1017.2 - 0.0 - - - - - - -
20/01:30am 14.7 NNW 8 11 1017.2 - 0.0 - - - - - - -
20/01:00am 15.0 N 9 12 1017.4 - 0.0 - - - - - - -
20/12:30am 14.7 N 8 11 1017.3 - 0.0 - - - - - - -
20/12:00am 14.3 N 8 11 1017.5 - 0.0 - - - - - - -
 
Date/Time
EST
Temp

°C
Wind Pressure Rain
since 9am
mm
Weather Cloud Vis
km
Sea
Height
m
Swell
Dir
 
Speed
knots
Gust
knots
hPa Trend Height
m
Period
s
Dir
19/11:30pm 14.8 N 8 11 1017.6 - 0.0 - - - - - - -
19/11:00pm 14.7 N 6 7 1018.0 - 0.0 - - - - - - -
19/10:30pm 14.5 N 4 6 1018.2 - 0.0 - - - - - - -
19/10:00pm 14.6 N 5 7 1018.2 - 0.0 - - - - - - -
19/09:30pm 14.4 N 4 5 1018.2 - 0.0 - - - - - - -
19/09:00pm 14.4 N 4 5 1018.3 - 0.0 - - - - - - -
19/08:30pm 14.5 N 5 7 1018.1 - 0.0 - - - - - - -
19/08:00pm 14.5 N 5 7 1018.3 - 0.0 - - - - - - -
19/07:30pm 14.4 N 4 6 1018.2 - 0.0 - - - - - - -
19/07:00pm 14.4 N 4 5 1018.0 - 0.0 - - - - - - -
19/06:30pm 14.6 N 5 6 1017.9 - 0.0 - - - - - - -
19/06:00pm 14.9 N 5 6 1018.2 - 0.0 - - - - - - -
19/05:30pm 15.2 NNW 6 8 1018.2 - 0.0 - - - - - - -
19/05:00pm 15.7 N 6 9 1018.3 - 0.0 - - - - - - -
19/04:30pm 15.8 NW 6 8 1018.7 - 0.0 - - - - - - -
19/04:00pm 16.3 NNW 6 9 1018.8 - 0.0 - - - - - - -
19/03:30pm 17.3 NNW 7 10 1018.8 F 0.0 Haze Mostly cloudy 10 1 - - SW
19/03:00pm 16.8 NNW 8 11 1019.2 - 0.0 - - - - - - -
19/02:30pm 16.4 N 7 9 1019.3 - 0.0 - - - - - - -
19/02:00pm 16.3 NNW 5 7 1019.5 - 0.0 - - - - - - -
19/01:30pm 15.9 N 6 8 1020.1 - 0.0 - - - - - - -
19/01:00pm 15.6 N 5 9 1020.9 - 0.0 - - - - - - -
19/12:30pm 15.8 NNE 7 9 1021.0 - 0.0 - - - - - - -
19/12:00pm 15.8 NE 7 10 1021.6 - 0.0 - - - - - - -
19/11:30am 15.3 NE 8 11 1021.9 - 0.0 - - - - - - -
19/11:00am 15.4 NE 7 10 1022.2 - 0.0 - - - - - - -
19/10:30am 15.5 NE 8 13 1022.4 - 0.0 - - - - - - -
19/10:00am 15.0 ENE 7 11 1022.6 - 0.0 - - - - - - -
19/09:30am 14.6 ENE 7 10 1022.5 F 0.0 Fine Cloudy 20 1 - - SW
19/09:00am 13.6 E 5 7 1022.6 - 0.0 - - - - - - -
19/08:30am 12.7 ESE 5 6 1022.6 - 0.0 - - - - - - -
19/08:00am 12.6 E 6 6 1022.4 - 0.0 - - - - - - -
19/07:30am 12.3 E 7 7 1022.3 - 0.0 - - - - - - -
19/07:00am 12.5 E 5 6 1022.2 - 0.0 - - - - - - -
19/06:30am 12.6 - 6 7 1022.0 - 0.0 - - - - - - -
19/06:00am 12.0 ESE 6 7 1022.1 - 0.0 - - - - - - -
19/05:30am 12.3 E 6 7 1022.2 - 0.0 - - - - - - -
19/05:00am 12.2 E 7 8 1022.1 - 0.0 - - - - - - -
19/04:30am 11.7 ESE 7 7 1022.1 - 0.0 - - - - - - -
19/04:00am 11.9 ESE 6 7 1022.1 - 0.0 - - - - - - -
19/03:30am 11.8 ESE 6 7 1022.2 - 0.0 - - - - - - -
19/03:00am 12.0 ESE 6 7 1022.4 - 0.0 - - - - - - -
19/02:30am 12.2 ESE 6 7 1022.6 - 0.0 - - - - - - -
19/02:00am 12.3 ESE 6 7 1022.8 - 0.0 - - - - - - -
19/01:30am 12.2 ESE 5 6 1023.0 - 0.0 - - - - - - -
19/01:00am 12.3 SE 6 6 1023.1 - 0.0 - - - - - - -
19/12:30am 12.9 SSE 5 6 1023.2 - 0.0 - - - - - - -
19/12:00am 12.4 SSE 8 10 1023.4 - 0.0 - - - - - - -
 
Date/Time
EST
Temp

°C
Wind Pressure Rain
since 9am
mm
Weather Cloud Vis
km
Sea
Height
m
Swell
Dir
 
Speed
knots
Gust
knots
hPa Trend Height
m
Period
s
Dir
18/11:30pm 11.5 SSE 6 6 1023.6 - 0.0 - - - - - - -
18/11:00pm 12.2 SSE 5 6 1023.8 - 0.0 - - - - - - -
18/10:30pm 12.3 SSE 6 7 1024.0 - 0.0 - - - - - - -
18/10:00pm 12.2 SSE 6 7 1024.0 - 0.0 - - - - - - -
18/09:30pm 12.1 SSE 6 7 1023.9 - 0.0 - - - - - - -
18/09:00pm 11.2 S 5 6 1024.0 - 0.0 - - - - - - -
18/08:30pm 10.5 S 7 8 1023.9 - 0.0 - - - - - - -
18/08:00pm 10.8 S 8 9 1023.7 - 0.0 - - - - - - -
18/07:30pm 11.3 S 8 9 1023.6 - 0.0 - - - - - - -
18/07:00pm 12.2 S 7 7 1023.5 - 0.0 - - - - - - -
18/06:30pm 14.3 S 9 12 1023.1 - 0.0 - - - - - - -
18/06:00pm 14.7 S 7 11 1023.2 - 0.0 - - - - - - -
18/05:30pm 14.9 S 8 11 1023.1 - 0.0 - - - - - - -
18/05:00pm 17.0 SW 10 12 1022.9 - 0.0 - - - - - - -
18/04:30pm 17.3 S 9 15 1022.9 - 0.0 - - - - - - -
18/04:00pm 16.8 SSW 12 19 1022.9 - 0.0 - - - - - - -
18/03:30pm 17.1 SW 14 20 1022.6 R 0.0 Fine Mostly clear 12 1 7.2 9 SW
18/03:00pm 17.0 SSW 12 18 1022.8 - 0.0 - - - - - - -
18/02:30pm 17.1 SSW 15 25 1022.6 - 0.0 - - - - - - -
18/02:28pm 17.2 SSW 15 25 1022.5 - 0.0 - - - - - - -
18/02:00pm 17.2 SW 15 20 1022.6 - 0.0 - - - - - - -
18/01:30pm 18.3 SW 13 20 1022.7 - 0.0 - - - - - - -
18/01:00pm 17.1 SSW 13 18 1022.9 - 0.0 - - - - - - -
18/12:30pm 17.4 SSW 11 16 1023.0 - 0.0 - - - - - - -
18/12:00pm 17.4 S 14 18 1023.0 - 0.0 - - - - - - -
18/11:30am 17.3 SW 14 19 1023.1 - 0.0 - - - - - - -
18/11:00am 16.1 SW 13 17 1023.1 - 0.0 - - - - - - -
18/10:30am 16.4 SW 14 19 1022.9 - 0.0 - - - - - - -
18/10:00am 16.7 SW 12 15 1022.8 - 0.0 - - - - - - -
18/09:30am 15.5 SSW 13 18 1022.5 R 0.0 Fine Mostly clear 10 1 7.2 8 SW
18/09:00am 15.3 S 12 18 1022.3 - 0.0 - - - - - - -
18/08:30am 14.1 S 9 13 1021.9 - 0.0 - - - - - - -
18/08:00am 13.6 S 11 14 1021.4 - 0.0 - - - - - - -
18/07:30am 12.6 S 10 14 1020.9 - 0.0 - - - - - - -

Other Formats:

Comma delimited format used in spreadsheet applications
http://www.bom.gov.au/fwo/IDT60701/IDT60701.95805.axf

JavaScript Object Notation format (JSON) in row-major order
http://www.bom.gov.au/fwo/IDT60701/IDT60701.95805.json